Sheng Jia 1 — XUGG7 — position and weather

sailwx.info

Track history (hours):
 
Tides and Currents Weather Stations Pressure Air Temp Water Temp Dewpoint Dewpoint Depression Visibility Wind Speed Wind Dir Waves Ship Positions

Sheng Jia 1

Last reported at 2015-Jul-07 10:22 UTC. Time now 2015-Jul-07 11:04 UTC.
Position N 30°27' E 122°02'.

Length 73 m; draft 4.2 m.

Type: Cargo ship. MMSI: 515744000.

Date/timePositionNaut miles runAvg speedWind from/ knotsBaromVisibWave heightAir tempDewpointWater temp
2015-Jul-07 10:22N 30°27' E 122°02'9 9.8
2015-Jul-07 09:23N 30°22' E 121°52'25 0.5
2015-Jul-05 06:17N 29°58' E 121°44'3 4.4
2015-Jul-05 05:32N 29°60' E 121°48'1 0.5
2015-Jul-05 03:17N 30°01' E 121°47'0 0.0
2015-Jul-05 02:17N 30°01' E 121°47'0 0.0
2015-Jul-04 23:17N 30°01' E 121°47'0 0.0
2015-Jul-04 21:23N 30°01' E 121°47'0 0.0
2015-Jul-04 15:25N 30°01' E 121°47'0 0.0
2015-Jul-04 05:33N 30°01' E 121°47'0 0.0
2015-Jul-03 19:28N 30°01' E 121°47'0 0.0
2015-Jul-03 18:28N 30°01' E 121°47'0 0.0
2015-Jul-03 16:16N 30°01' E 121°47'0 0.0
2015-Jul-03 14:28N 30°01' E 121°47'0 0.0
2015-Jul-03 13:28N 30°01' E 121°47'0 0.0
2015-Jul-03 01:32N 30°01' E 121°47'0 0.0
2015-Jul-03 00:32N 30°01' E 121°47'0 0.1
2015-Jul-02 23:26N 30°01' E 121°47'0 0.0
2015-Jul-02 22:20N 30°01' E 121°47'0 0.1
2015-Jul-02 21:20N 30°01' E 121°47'0 0.1
2015-Jul-02 20:32N 30°01' E 121°47'0 0.0
2015-Jul-02 19:26N 30°01' E 121°47'0 0.1
2015-Jul-02 18:20N 30°01' E 121°47'0 0.0
2015-Jul-02 15:24N 30°01' E 121°47'0 0.0
2015-Jul-02 13:06N 30°01' E 121°47'0 0.0
2015-Jul-02 05:27N 30°01' E 121°47'3 0.7
2015-Jul-02 01:20N 30°04' E 121°48'6 6.5
2015-Jul-02 00:21N 30°10' E 121°47'  
2015-Jun-28 16:14N 30°14' E 121°46'17 9.3
2015-Jun-28 14:23N 30°27' E 121°59'8 9.6
2015-Jun-28 13:33N 30°31' E 122°07'1010.1
2015-Jun-28 12:33N 30°34' E 122°18'2310.2
2015-Jun-28 10:19N 30°38' E 122°44'910.4
2015-Jun-28 09:30N 30°42' E 122°53'  
Track history (hours):
 
Tides and Currents Weather Stations Pressure Air Temp Water Temp Dewpoint Dewpoint Depression Visibility Wind Speed Wind Dir Waves Ship Positions

Sheng Jia 1

Last reported at 2015-Jul-07 10:22 UTC. Time now 2015-Jul-07 11:04 UTC.
Position N 30°27' E 122°02'.

Length 73 m; draft 4.2 m.

Type: Cargo ship. MMSI: 515744000.

Date/timePositionNaut miles runAvg speedWind from/ knotsBaromVisibWave heightAir tempDewpointWater temp
2015-Jul-07 10:22N 30°27' E 122°02'9 9.8
2015-Jul-07 09:23N 30°22' E 121°52'25 0.5
2015-Jul-05 06:17N 29°58' E 121°44'3 4.4
2015-Jul-05 05:32N 29°60' E 121°48'1 0.5
2015-Jul-05 03:17N 30°01' E 121°47'0 0.0
2015-Jul-05 02:17N 30°01' E 121°47'0 0.0
2015-Jul-04 23:17N 30°01' E 121°47'0 0.0
2015-Jul-04 21:23N 30°01' E 121°47'0 0.0
2015-Jul-04 15:25N 30°01' E 121°47'0 0.0
2015-Jul-04 05:33N 30°01' E 121°47'0 0.0
2015-Jul-03 19:28N 30°01' E 121°47'0 0.0
2015-Jul-03 18:28N 30°01' E 121°47'0 0.0
2015-Jul-03 16:16N 30°01' E 121°47'0 0.0
2015-Jul-03 14:28N 30°01' E 121°47'0 0.0
2015-Jul-03 13:28N 30°01' E 121°47'0 0.0
2015-Jul-03 01:32N 30°01' E 121°47'0 0.0
2015-Jul-03 00:32N 30°01' E 121°47'0 0.1
2015-Jul-02 23:26N 30°01' E 121°47'0 0.0
2015-Jul-02 22:20N 30°01' E 121°47'0 0.1
2015-Jul-02 21:20N 30°01' E 121°47'0 0.1
2015-Jul-02 20:32N 30°01' E 121°47'0 0.0
2015-Jul-02 19:26N 30°01' E 121°47'0 0.1
2015-Jul-02 18:20N 30°01' E 121°47'0 0.0
2015-Jul-02 15:24N 30°01' E 121°47'0 0.0
2015-Jul-02 13:06N 30°01' E 121°47'0 0.0
2015-Jul-02 05:27N 30°01' E 121°47'3 0.7
2015-Jul-02 01:20N 30°04' E 121°48'6 6.5
2015-Jul-02 00:21N 30°10' E 121°47'  
2015-Jun-28 16:14N 30°14' E 121°46'17 9.3
2015-Jun-28 14:23N 30°27' E 121°59'8 9.6
2015-Jun-28 13:33N 30°31' E 122°07'1010.1
2015-Jun-28 12:33N 30°34' E 122°18'2310.2
2015-Jun-28 10:19N 30°38' E 122°44'910.4
2015-Jun-28 09:30N 30°42' E 122°53'  

Dump ship's entire track history